Terminal Aerodrome Forecast
Issued by NWS

Current Version | Previous Version | Text Only | Print | Product List | Glossary On
Versions: 1 2 3 4 5 6 7 8 9 10 11 12 13
000
FTUS42 TJSJ 241100
TAFIST
TAF
TIST 241125Z 2412/2512 09013KT P6SM VCSH SCT030
     FM241400 09017G25KT P6SM FEW022 SCT050
     FM242300 09008KT P6SM FEW025=

USA.gov is the U.S. government's official web portal to all federal, state and local government web resources and services.